Time;durP1;ratioP1;P1;durP2;ratioP2;P2;SDS_P1;SDS_P2;PMS_P1;PMS_P2;Temp;Humidity;BMP_temperature;BMP_pressure;BME280_temperature;BME280_humidity;BME280_pressure;Samples;Min_cycle;Max_cycle;Signal;HPM_P1;HPM_P2
2022/09/06 00:00:40;;;;;;;1.95;1.60;;;;;;;9.71;100.00;99652.47;5171863;27;20054;-48
2022/09/06 00:03:07;;;;;;;7.47;1.67;;;;;;;9.75;100.00;99654.16;5171780;27;20069;-49
2022/09/06 00:05:35;;;;;;;3.25;1.83;;;;;;;9.60;100.00;99663.09;5171869;27;20099;-47
2022/09/06 00:08:04;;;;;;;2.45;1.77;;;;;;;9.57;100.00;99700.16;5171682;27;20047;-48
2022/09/06 00:10:32;;;;;;;2.75;1.55;;;;;;;9.64;100.00;99681.22;5171885;27;20046;-47
2022/09/06 00:13:01;;;;;;;5.20;2.03;;;;;;;9.64;100.00;99689.44;5171731;27;20074;-47
2022/09/06 00:15:27;;;;;;;7.25;1.58;;;;;;;9.65;100.00;99669.13;5171905;27;20106;-46
2022/09/06 00:17:54;;;;;;;3.05;2.08;;;;;;;9.77;100.00;99632.72;5171925;27;20058;-46
2022/09/06 00:20:20;;;;;;;2.53;1.65;;;;;;;9.80;100.00;99642.97;5171646;27;20494;-48
2022/09/06 00:22:46;;;;;;;2.10;1.70;;;;;;;9.86;100.00;99619.66;5172469;27;20052;-48
2022/09/06 00:25:13;;;;;;;3.88;2.17;;;;;;;9.77;100.00;99613.53;5175140;27;20046;-48
2022/09/06 00:27:39;;;;;;;3.30;1.90;;;;;;;9.80;100.00;99596.41;5175376;27;20057;-47
2022/09/06 00:30:07;;;;;;;2.17;1.95;;;;;;;9.75;100.00;99626.78;5175078;27;20505;-48
2022/09/06 00:32:33;;;;;;;2.90;1.70;;;;;;;9.84;100.00;99616.47;5175245;27;20070;-48
2022/09/06 00:34:59;;;;;;;2.55;1.88;;;;;;;9.77;100.00;99621.75;5175162;27;20054;-48
2022/09/06 00:37:25;;;;;;;4.43;1.88;;;;;;;9.80;100.00;99650.38;5175122;27;20046;-48
2022/09/06 00:39:52;;;;;;;2.35;1.67;;;;;;;9.80;100.00;99632.00;5175014;27;20050;-47
2022/09/06 00:42:19;;;;;;;3.10;1.85;;;;;;;9.77;100.00;99648.34;5175088;27;20513;-48
2022/09/06 00:44:45;;;;;;;4.20;2.15;;;;;;;9.76;100.00;99657.69;5174895;27;20440;-47
2022/09/06 00:47:12;;;;;;;2.90;2.42;;;;;;;9.79;100.00;99655.03;5174797;27;20060;-47
2022/09/06 00:49:43;;;;;;;5.68;1.85;;;;;;;9.77;100.00;99649.13;5174905;27;20057;-47
2022/09/06 00:52:13;;;;;;;3.13;2.13;;;;;;;9.74;100.00;99627.91;5174586;27;20525;-46
2022/09/06 00:54:39;;;;;;;5.50;2.20;;;;;;;9.66;100.00;99653.50;5174608;27;20057;-46
2022/09/06 00:57:06;;;;;;;4.10;2.55;;;;;;;9.69;100.00;99661.00;5174660;27;20060;-47
2022/09/06 00:59:36;;;;;;;8.70;2.60;;;;;;;9.69;100.00;99669.22;5174713;27;20513;-46
2022/09/06 01:02:04;;;;;;;4.70;2.38;;;;;;;9.66;100.00;99667.19;5174989;27;20057;-47
2022/09/06 01:04:31;;;;;;;3.75;2.42;;;;;;;9.65;100.00;99674.59;5174674;27;20046;-47
2022/09/06 01:07:05;;;;;;;3.17;1.92;;;;;;;9.79;100.00;99676.94;5174602;27;20058;-49
2022/09/06 01:09:48;;;;;;;4.15;2.40;;;;;;;9.81;100.00;99658.25;5174853;27;20058;-50
2022/09/06 01:12:30;;;;;;;5.35;2.58;;;;;;;9.79;100.00;99673.41;5174398;27;20397;-49
2022/09/06 01:15:10;;;;;;;4.35;2.35;;;;;;;9.71;100.00;99683.38;5174313;27;20105;-51
2022/09/06 01:17:47;;;;;;;4.18;2.58;;;;;;;9.84;100.00;99670.44;5174379;27;20046;-47
2022/09/06 01:20:33;;;;;;;11.35;2.35;;;;;;;9.69;100.00;99660.22;5174886;27;20813;-50
2022/09/06 01:23:32;;;;;;;6.60;2.58;;;;;;;9.86;100.00;99618.84;5174545;27;20493;-50
2022/09/06 01:26:11;;;;;;;8.05;2.42;;;;;;;9.80;100.00;99590.94;5174332;27;20058;-49
2022/09/06 01:28:40;;;;;;;3.63;2.70;;;;;;;9.96;100.00;99595.63;5174477;27;20165;-47
2022/09/06 01:31:22;;;;;;;3.67;2.47;;;;;;;9.96;100.00;99592.91;5174476;27;20054;-46
2022/09/06 01:33:59;;;;;;;4.00;2.40;;;;;;;9.97;100.00;99576.13;5173651;27;20084;-50
2022/09/06 01:36:32;;;;;;;2.55;2.05;;;;;;;9.98;100.00;99565.97;5174220;27;20043;-50
2022/09/06 01:38:58;;;;;;;5.30;2.45;;;;;;;9.92;100.00;99601.03;5174156;27;20056;-48
2022/09/06 01:41:24;;;;;;;4.78;2.50;;;;;;;9.94;100.00;99603.44;5174134;27;20092;-49
2022/09/06 01:43:54;;;;;;;6.85;2.38;;;;;;;9.93;100.00;99556.09;5174163;27;20046;-48
2022/09/06 01:46:33;;;;;;;4.75;2.28;;;;;;;9.97;100.00;99512.34;5174056;27;20046;-48
2022/09/06 01:49:19;;;;;;;6.43;2.17;;;;;;;9.95;100.00;99570.19;5173673;27;20097;-51
2022/09/06 01:51:59;;;;;;;5.32;2.00;;;;;;;9.96;100.00;99555.34;5174042;27;20043;-48
2022/09/06 01:54:37;;;;;;;3.42;2.30;;;;;;;9.97;100.00;99550.69;5174262;27;20054;-50
2022/09/06 01:57:18;;;;;;;5.05;2.22;;;;;;;9.98;100.00;99564.03;5173884;27;20141;-46
2022/09/06 02:00:07;;;;;;;5.55;2.70;;;;;;;9.93;100.00;99582.66;5173918;27;20518;-47
2022/09/06 02:02:47;;;;;;;5.68;2.45;;;;;;;9.95;100.00;99602.28;5174068;27;20179;-47
2022/09/06 02:05:23;;;;;;;2.47;1.90;;;;;;;9.94;100.00;99593.25;5173801;27;20413;-48
2022/09/06 02:07:53;;;;;;;4.63;2.20;;;;;;;9.99;100.00;99576.56;5174104;27;20101;-48
2022/09/06 02:10:25;;;;;;;6.32;2.08;;;;;;;9.96;100.00;99582.75;5173724;27;20050;-48
2022/09/06 02:12:54;;;;;;;4.53;2.03;;;;;;;10.02;100.00;99572.34;5173136;27;20077;-48
2022/09/06 02:15:25;;;;;;;3.92;2.13;;;;;;;10.02;100.00;99561.38;5173566;27;20515;-50
2022/09/06 02:17:57;;;;;;;4.82;2.63;;;;;;;9.96;100.00;99554.56;5173711;27;20050;-50
2022/09/06 02:20:26;;;;;;;3.55;2.60;;;;;;;10.05;100.00;99556.00;5173798;27;20089;-49
2022/09/06 02:22:56;;;;;;;4.93;2.90;;;;;;;10.04;100.00;99554.41;5173959;27;20366;-49
2022/09/06 02:25:26;;;;;;;4.03;2.50;;;;;;;10.07;100.00;99541.97;5173644;27;20488;-49
2022/09/06 02:27:54;;;;;;;7.55;2.20;;;;;;;10.05;100.00;99539.56;5173377;27;20085;-48
2022/09/06 02:30:21;;;;;;;7.32;1.92;;;;;;;10.08;100.00;99540.81;5173519;27;20042;-48
2022/09/06 02:32:55;;;;;;;3.55;2.08;;;;;;;10.07;100.00;99534.53;5173286;27;20050;-48
2022/09/06 02:35:21;;;;;;;4.20;2.28;;;;;;;9.86;100.00;99564.91;5173312;27;20080;-47
2022/09/06 02:37:50;;;;;;;4.20;2.17;;;;;;;9.99;100.00;99559.34;5173234;27;20497;-47
2022/09/06 02:40:17;;;;;;;4.55;2.10;;;;;;;9.99;100.00;99548.38;5173031;27;20137;-48
2022/09/06 02:42:43;;;;;;;3.38;1.95;;;;;;;9.85;100.00;99566.03;5173065;27;20049;-48
2022/09/06 02:45:10;;;;;;;2.60;2.17;;;;;;;9.93;100.00;99568.94;5171904;27;20051;-47
2022/09/06 02:47:37;;;;;;;7.18;2.53;;;;;;;10.04;100.00;99559.09;5172992;27;20050;-47
2022/09/06 02:50:04;;;;;;;3.83;2.13;;;;;;;10.07;100.00;99552.91;5172756;27;20050;-48
2022/09/06 02:52:30;;;;;;;4.97;2.13;;;;;;;10.03;100.00;99569.25;5172912;27;20049;-48
2022/09/06 02:54:56;;;;;;;3.45;2.10;;;;;;;10.09;100.00;99531.44;5172826;27;20050;-48
2022/09/06 02:57:22;;;;;;;5.90;2.33;;;;;;;10.04;100.00;99559.88;5172771;27;20085;-49
2022/09/06 02:59:49;;;;;;;3.92;1.85;;;;;;;10.16;100.00;99564.47;5172832;27;20042;-48
2022/09/06 03:02:15;;;;;;;5.28;2.20;;;;;;;10.04;100.00;99567.31;5172247;27;20048;-47
2022/09/06 03:04:42;;;;;;;2.97;2.03;;;;;;;9.99;100.00;99581.25;5172378;27;20046;-51
2022/09/06 03:07:08;;;;;;;5.38;2.15;;;;;;;10.06;100.00;99593.22;5172597;27;20098;-46
2022/09/06 03:09:35;;;;;;;6.10;2.45;;;;;;;10.05;100.00;99597.09;5172391;27;20057;-45
2022/09/06 03:12:02;;;;;;;5.32;2.15;;;;;;;10.00;100.00;99602.84;5172577;27;20059;-45
2022/09/06 03:14:28;;;;;;;3.65;2.25;;;;;;;10.03;100.00;99615.00;5172505;27;20507;-46
2022/09/06 03:16:54;;;;;;;2.70;1.98;;;;;;;10.02;100.00;99595.03;5172729;27;20103;-50
2022/09/06 03:19:21;;;;;;;4.63;2.13;;;;;;;10.01;100.00;99574.28;5172676;27;20050;-48
2022/09/06 03:21:48;;;;;;;4.43;2.28;;;;;;;9.97;100.00;99609.00;5172446;27;20046;-46
2022/09/06 03:24:14;;;;;;;3.63;2.20;;;;;;;9.94;100.00;99637.09;5172544;27;20050;-46
2022/09/06 03:26:40;;;;;;;3.75;2.20;;;;;;;9.96;100.00;99653.16;5172321;27;20516;-47
2022/09/06 03:29:06;;;;;;;3.15;2.30;;;;;;;9.99;100.00;99652.47;5172439;27;20409;-49
2022/09/06 03:31:33;;;;;;;3.83;1.92;;;;;;;10.07;100.00;99644.09;5172179;27;20086;-47
2022/09/06 03:33:59;;;;;;;6.00;2.20;;;;;;;10.11;100.00;99631.28;5172328;27;20053;-50
2022/09/06 03:36:25;;;;;;;3.90;2.25;;;;;;;10.14;100.00;99613.38;5172025;27;20093;-48
2022/09/06 03:38:53;;;;;;;4.93;2.33;;;;;;;9.97;100.00;99646.56;5172108;27;20118;-48
2022/09/06 03:41:19;;;;;;;4.70;2.20;;;;;;;9.99;100.00;99677.13;5172112;27;20049;-50
2022/09/06 03:43:45;;;;;;;8.35;2.08;;;;;;;9.93;100.00;99705.88;5172076;27;20050;-47
2022/09/06 03:46:12;;;;;;;4.90;2.28;;;;;;;10.02;100.00;99714.78;5172179;27;20042;-46
2022/09/06 03:48:38;;;;;;;5.68;2.40;;;;;;;9.84;100.00;99717.78;5172300;27;20570;-46
2022/09/06 03:51:04;;;;;;;6.38;2.05;;;;;;;9.92;100.00;99759.88;5172576;27;20077;-46
2022/09/06 03:53:31;;;;;;;2.83;1.90;;;;;;;10.00;100.00;99748.00;5172089;27;20042;-48
2022/09/06 03:55:58;;;;;;;3.97;2.38;;;;;;;10.02;100.00;99747.63;5172140;27;20053;-47
2022/09/06 03:58:29;;;;;;;6.88;2.30;;;;;;;10.07;100.00;99728.22;5175443;27;20050;-47
2022/09/06 04:01:06;;;;;;;5.05;1.90;;;;;;;10.01;100.00;99738.63;5175764;27;20046;-47
2022/09/06 04:03:33;;;;;;;4.28;2.40;;;;;;;10.12;100.00;99727.97;5175390;27;20055;-48
2022/09/06 04:06:00;;;;;;;6.05;2.45;;;;;;;10.14;100.00;99712.00;5175587;27;20097;-46
2022/09/06 04:08:27;;;;;;;4.88;2.03;;;;;;;9.96;100.00;99705.19;5175587;27;20042;-48
2022/09/06 04:10:53;;;;;;;9.48;3.53;;;;;;;10.13;100.00;99707.66;5175685;27;20402;-46
2022/09/06 04:13:21;;;;;;;5.15;2.65;;;;;;;10.07;100.00;99693.41;5175616;27;20131;-46
2022/09/06 04:15:48;;;;;;;5.55;2.15;;;;;;;10.11;100.00;99697.03;5175433;27;20075;-47
2022/09/06 04:18:15;;;;;;;5.18;2.15;;;;;;;10.13;100.00;99693.97;5175506;27;20404;-47
2022/09/06 04:20:42;;;;;;;5.25;2.13;;;;;;;10.18;100.00;99690.97;5175296;27;20042;-47
2022/09/06 04:23:09;;;;;;;3.70;1.98;;;;;;;10.21;100.00;99673.03;5175384;27;20061;-46
2022/09/06 04:25:35;;;;;;;3.50;2.03;;;;;;;10.31;100.00;99676.09;5175071;27;20057;-51
2022/09/06 04:28:01;;;;;;;7.03;2.50;;;;;;;10.28;100.00;99641.16;5175221;27;20046;-48
2022/09/06 04:30:28;;;;;;;2.70;2.00;;;;;;;10.28;100.00;99616.50;5175007;27;20127;-47
2022/09/06 04:32:55;;;;;;;6.85;2.15;;;;;;;10.38;100.00;99611.66;5175099;27;20174;-48
2022/09/06 04:35:21;;;;;;;3.80;2.20;;;;;;;10.48;100.00;99591.94;5175146;27;20052;-47
2022/09/06 04:37:47;;;;;;;4.85;2.28;;;;;;;10.52;100.00;99576.38;5174870;27;20049;-49
2022/09/06 04:40:13;;;;;;;5.65;2.10;;;;;;;10.50;100.00;99554.03;5175017;27;20046;-49
2022/09/06 04:42:40;;;;;;;4.65;2.17;;;;;;;10.38;100.00;99585.03;5174759;27;20051;-46
2022/09/06 04:45:07;;;;;;;2.90;2.03;;;;;;;10.54;100.00;99579.56;5175054;27;20046;-50
2022/09/06 04:47:35;;;;;;;5.80;2.40;;;;;;;10.67;100.00;99572.06;5174714;27;20421;-46
2022/09/06 04:50:01;;;;;;;3.30;2.17;;;;;;;10.72;100.00;99560.78;5174925;27;20046;-46
2022/09/06 04:52:27;;;;;;;4.15;2.40;;;;;;;10.66;100.00;99523.81;5174640;27;20042;-46
2022/09/06 04:54:53;;;;;;;2.80;1.83;;;;;;;10.73;100.00;99511.09;5174808;27;20089;-46
2022/09/06 04:57:20;;;;;;;7.30;2.25;;;;;;;10.84;100.00;99457.25;5174611;27;20042;-46
2022/09/06 04:59:46;;;;;;;4.57;2.30;;;;;;;10.96;100.00;99445.38;5174654;27;20488;-46
2022/09/06 05:02:12;;;;;;;4.28;2.25;;;;;;;10.96;100.00;99422.63;5174322;27;20046;-47
2022/09/06 05:04:39;;;;;;;5.20;2.20;;;;;;;11.15;100.00;99384.19;5174385;27;20091;-46
2022/09/06 05:07:08;;;;;;;3.88;2.53;;;;;;;11.32;100.00;99360.97;5174625;27;20515;-48
2022/09/06 05:09:35;;;;;;;4.75;2.50;;;;;;;11.04;100.00;99361.25;5173598;27;20054;-51
2022/09/06 05:12:02;;;;;;;3.47;2.60;;;;;;;11.39;100.00;99314.44;5174554;27;20088;-47
2022/09/06 05:14:29;;;;;;;5.60;2.65;;;;;;;11.52;100.00;99257.41;5174209;27;20448;-49
2022/09/06 05:16:55;;;;;;;9.63;2.47;;;;;;;11.40;100.00;99263.09;5174508;27;20046;-48
2022/09/06 05:19:21;;;;;;;5.05;2.42;;;;;;;11.35;100.00;99235.94;5174260;27;20168;-51
2022/09/06 05:21:50;;;;;;;4.90;2.47;;;;;;;11.35;100.00;99266.94;5174428;27;20049;-51
2022/09/06 05:24:16;;;;;;;6.57;2.60;;;;;;;11.64;100.00;99240.72;5174186;27;20052;-49
2022/09/06 05:26:42;;;;;;;9.27;2.75;;;;;;;11.69;100.00;99232.16;5174005;27;20153;-52
2022/09/06 05:29:09;;;;;;;7.13;2.40;;;;;;;11.64;100.00;99205.03;5173737;27;20049;-51
2022/09/06 05:31:35;;;;;;;6.30;2.38;;;;;;;11.69;100.00;99215.66;5174063;27;20046;-50
2022/09/06 05:34:01;;;;;;;9.90;2.65;;;;;;;11.71;100.00;99193.34;5173959;27;20069;-52
2022/09/06 05:36:29;;;;;;;3.53;2.70;;;;;;;11.83;100.00;99167.59;5174236;27;20087;-50
2022/09/06 05:38:57;;;;;;;7.35;2.53;;;;;;;11.92;100.00;99151.66;5174106;27;20547;-50
2022/09/06 05:41:24;;;;;;;5.63;2.17;;;;;;;11.78;100.00;99141.25;5173695;27;20424;-50
2022/09/06 05:43:50;;;;;;;3.90;2.28;;;;;;;11.95;100.00;99128.94;5173902;27;20049;-51
2022/09/06 05:46:17;;;;;;;11.60;2.00;;;;;;;11.88;100.00;99142.59;5173762;27;20477;-54
2022/09/06 05:48:43;;;;;;;8.88;2.40;;;;;;;11.71;100.00;99155.69;5173809;27;20053;-52
2022/09/06 05:51:11;;;;;;;5.55;1.85;;;;;;;11.81;100.00;99140.50;5173593;27;20053;-54
2022/09/06 05:53:39;;;;;;;3.15;2.15;;;;;;;11.77;100.00;99126.72;5173752;27;20050;-55
2022/09/06 05:56:07;;;;;;;4.47;2.38;;;;;;;11.88;100.00;99124.13;5173609;27;20476;-48
2022/09/06 05:58:34;;;;;;;4.07;2.17;;;;;;;11.87;100.00;99124.53;5173452;27;20085;-51
2022/09/06 06:01:13;;;;;;;4.60;2.63;;;;;;;11.84;100.00;99125.25;5173466;27;20060;-50
2022/09/06 06:03:39;;;;;;;3.58;1.90;;;;;;;11.82;100.00;99122.06;5173639;27;20046;-48
2022/09/06 06:06:06;;;;;;;7.60;2.42;;;;;;;11.95;100.00;99115.97;5173621;27;20530;-50
2022/09/06 06:08:32;;;;;;;9.45;5.05;;;;;;;11.90;100.00;99129.28;5173258;27;20069;-54
2022/09/06 06:10:59;;;;;;;13.98;4.07;;;;;;;11.74;100.00;99135.72;5173675;27;20101;-52
2022/09/06 06:13:28;;;;;;;3.90;2.58;;;;;;;11.89;100.00;99149.66;5172991;27;20053;-48
2022/09/06 06:15:54;;;;;;;4.30;2.40;;;;;;;11.88;100.00;99167.31;5173374;27;20088;-50
2022/09/06 06:18:21;;;;;;;7.50;2.40;;;;;;;11.82;100.00;99174.25;5173431;27;20054;-52
2022/09/06 06:20:47;;;;;;;4.57;2.28;;;;;;;11.77;100.00;99183.63;5173224;27;20042;-53
2022/09/06 06:23:14;;;;;;;3.08;1.83;;;;;;;11.89;100.00;99169.66;5173223;27;20098;-51
2022/09/06 06:25:40;;;;;;;9.75;2.75;;;;;;;12.12;100.00;99153.06;5173127;27;20050;-52
2022/09/06 06:28:06;;;;;;;6.47;2.33;;;;;;;12.26;100.00;99135.94;5173088;27;20082;-49
2022/09/06 06:30:33;;;;;;;10.57;2.30;;;;;;;12.34;100.00;99112.06;5172902;27;20141;-54
2022/09/06 06:33:01;;;;;;;3.45;2.03;;;;;;;12.45;100.00;99104.72;5173264;27;20057;-52
2022/09/06 06:35:27;;;;;;;5.15;2.00;;;;;;;12.58;100.00;99105.22;5172962;27;20057;-51
2022/09/06 06:37:53;;;;;;;12.50;2.67;;;;;;;12.72;100.00;99097.88;5173210;27;20054;-51
2022/09/06 06:40:19;;;;;;;4.22;1.90;;;;;;;12.85;100.00;99095.63;5173022;27;20073;-51
2022/09/06 06:42:45;;;;;;;6.43;2.30;;;;;;;12.80;100.00;99106.22;5172896;27;20433;-51
2022/09/06 06:45:12;;;;;;;5.03;2.45;;;;;;;12.91;100.00;99113.34;5172768;27;20056;-52
2022/09/06 06:47:39;;;;;;;7.78;2.65;;;;;;;13.22;100.00;99127.72;5173028;27;20049;-51
2022/09/06 06:50:06;;;;;;;9.23;2.20;;;;;;;13.57;100.00;99121.66;5172572;27;20054;-55
2022/09/06 06:52:32;;;;;;;5.55;2.35;;;;;;;13.75;100.00;99141.03;5172732;27;20428;-51
2022/09/06 06:54:58;;;;;;;3.38;2.22;;;;;;;13.88;100.00;99152.50;5172927;27;20077;-55
2022/09/06 06:57:25;;;;;;;4.20;2.20;;;;;;;14.16;100.00;99157.34;5172906;27;20052;-53
2022/09/06 06:59:51;;;;;;;5.15;2.53;;;;;;;14.30;100.00;99181.41;5173004;27;20056;-50
2022/09/06 07:02:18;;;;;;;6.47;2.30;;;;;;;14.12;100.00;99179.38;5172550;27;20054;-55
2022/09/06 07:04:44;;;;;;;3.95;2.00;;;;;;;14.43;100.00;99184.59;5172810;27;20500;-53
2022/09/06 07:07:11;;;;;;;7.13;2.00;;;;;;;14.17;100.00;99207.75;5172795;27;20057;-54
2022/09/06 07:09:37;;;;;;;3.58;1.90;;;;;;;14.29;100.00;99226.69;5172594;27;20050;-53
2022/09/06 07:12:04;;;;;;;4.18;1.80;;;;;;;14.42;100.00;99222.41;5172370;27;20532;-51
2022/09/06 07:14:30;;;;;;;2.92;1.88;;;;;;;14.63;100.00;99238.28;5172662;27;20046;-51
2022/09/06 07:16:58;;;;;;;4.53;2.05;;;;;;;14.91;100.00;99262.38;5172603;27;20050;-54
2022/09/06 07:19:24;;;;;;;2.17;1.45;;;;;;;14.88;100.00;99276.97;5172208;27;20504;-51
2022/09/06 07:21:51;;;;;;;6.30;1.42;;;;;;;14.80;100.00;99394.84;5172159;27;20046;-52
2022/09/06 07:24:18;;;;;;;1.73;1.08;;;;;;;14.81;100.00;99459.13;5172384;27;20050;-56
2022/09/06 07:26:44;;;;;;;2.42;1.30;;;;;;;14.32;100.00;99446.53;5172334;27;20400;-51
2022/09/06 07:29:10;;;;;;;3.80;1.48;;;;;;;14.41;100.00;99477.34;5172197;27;20050;-52
2022/09/06 07:31:37;;;;;;;4.13;1.20;;;;;;;14.70;100.00;99485.88;5171892;27;20064;-50
2022/09/06 07:34:04;;;;;;;5.65;1.35;;;;;;;14.90;100.00;99520.28;5172088;27;20528;-50
2022/09/06 07:36:30;;;;;;;1.38;0.98;;;;;;;15.39;100.00;99562.34;5172261;27;20150;-53
2022/09/06 07:38:58;;;;;;;2.60;0.95;;;;;;;15.53;100.00;99629.53;5172066;27;20524;-49
2022/09/06 07:41:24;;;;;;;21.35;4.15;;;;;;;15.65;100.00;99650.50;5172326;27;20046;-50
2022/09/06 07:43:53;;;;;;;5.03;1.42;;;;;;;15.84;100.00;99706.72;5172035;27;20057;-49
2022/09/06 07:46:20;;;;;;;2.90;0.90;;;;;;;15.63;100.00;99735.00;5172363;27;20046;-50
2022/09/06 07:48:48;;;;;;;5.05;0.93;;;;;;;15.72;100.00;99713.34;5171840;27;20490;-55
2022/09/06 07:51:16;;;;;;;5.88;1.25;;;;;;;16.73;100.00;99726.41;5172019;27;20050;-51
2022/09/06 07:53:46;;;;;;;7.25;1.30;;;;;;;16.95;99.76;99741.09;5171987;27;20110;-54
2022/09/06 07:56:13;;;;;;;0.93;0.80;;;;;;;16.81;98.73;99743.84;5171812;27;20068;-52
2022/09/06 07:58:40;;;;;;;2.25;1.00;;;;;;;17.26;100.00;99720.16;5172275;27;20050;-54
2022/09/06 08:01:34;;;;;;;1.38;0.88;;;;;;;17.37;86.46;99762.50;5171560;27;20050;-54
2022/09/06 08:04:01;;;;;;;1.53;0.80;;;;;;;17.30;84.48;99767.25;5111592;27;20054;-54
2022/09/06 08:06:29;;;;;;;4.30;0.80;;;;;;;18.05;80.92;99776.28;5171775;27;20049;-53
2022/09/06 08:08:56;;;;;;;2.60;0.70;;;;;;;19.38;77.33;99773.59;5171680;27;20420;-53
2022/09/06 08:11:25;;;;;;;3.15;1.10;;;;;;;19.72;76.32;99776.50;5172046;27;20042;-53
2022/09/06 08:13:53;;;;;;;2.38;0.80;;;;;;;18.80;78.34;99776.00;5169861;27;20482;-54
2022/09/06 08:16:20;;;;;;;1.05;0.60;;;;;;;17.13;77.86;99775.16;5171419;27;20078;-63
2022/09/06 08:18:50;;;;;;;1.40;0.85;;;;;;;15.98;84.33;99771.19;5171674;27;20493;-62
2022/09/06 08:21:17;;;;;;;1.95;0.85;;;;;;;14.96;87.57;99755.38;5171820;27;20105;-62
2022/09/06 08:23:46;;;;;;;2.47;0.50;;;;;;;14.79;90.02;99757.59;5172127;27;20058;-62
2022/09/06 08:26:12;;;;;;;1.05;0.70;;;;;;;14.27;92.45;99764.84;5171479;27;20058;-62
2022/09/06 08:28:39;;;;;;;1.13;0.80;;;;;;;14.44;91.48;99762.69;5171632;27;20053;-61
2022/09/06 08:31:07;;;;;;;3.55;0.77;;;;;;;14.75;91.54;99756.75;5171420;27;20046;-61
2022/09/06 08:33:34;;;;;;;5.40;0.90;;;;;;;14.40;91.60;99757.13;5171478;27;20042;-62
2022/09/06 08:36:00;;;;;;;7.75;0.80;;;;;;;14.44;95.65;99757.97;5171435;27;20046;-62
2022/09/06 08:38:29;;;;;;;5.40;0.73;;;;;;;14.13;94.44;99759.94;5171475;27;20050;-61
2022/09/06 08:41:06;;;;;;;0.45;0.45;;;;;;;13.97;94.57;99745.56;5171233;27;20475;-62
2022/09/06 08:43:33;;;;;;;0.50;0.50;;;;;;;14.33;95.91;99737.75;5171976;27;20436;-61
2022/09/06 08:46:01;;;;;;;4.95;0.70;;;;;;;13.97;100.00;99742.00;5175035;27;20050;-61
2022/09/06 08:48:31;;;;;;;0.68;0.68;;;;;;;15.26;96.32;99730.38;5174798;27;20497;-62
2022/09/06 08:51:12;;;;;;;0.90;0.52;;;;;;;16.27;89.05;99732.59;5174641;27;20069;-61
2022/09/06 08:53:43;;;;;;;0.82;0.80;;;;;;;16.29;88.39;99738.50;5174861;27;20050;-61
2022/09/06 08:56:16;;;;;;;1.15;0.85;;;;;;;16.66;88.32;99740.22;5174616;27;20053;-62
2022/09/06 08:59:00;;;;;;;0.80;0.70;;;;;;;15.82;88.54;99740.28;5174844;27;20053;-61
2022/09/06 09:01:31;;;;;;;;;;;;;;;15.36;96.66;99718.66;5175028;27;20046;-62
2022/09/06 09:04:02;;;;;;;0.95;0.70;;;;;;;16.16;93.23;99717.91;5174731;27;19974;-62
2022/09/06 09:06:31;;;;;;;1.70;0.80;;;;;;;15.77;96.39;99710.25;5174722;27;20056;-62
2022/09/06 09:09:03;;;;;;;2.40;0.88;;;;;;;15.83;96.23;99708.69;5174539;27;20050;-62
2022/09/06 09:11:32;;;;;;;0.70;0.70;;;;;;;16.73;91.91;99717.28;5174617;27;20416;-62
2022/09/06 09:14:03;;;;;;;3.50;0.85;;;;;;;16.25;89.96;99712.81;5174397;27;20043;-61
2022/09/06 09:16:31;;;;;;;0.60;0.60;;;;;;;16.60;88.16;99727.97;5174149;27;20046;-62
2022/09/06 09:19:00;;;;;;;3.08;0.80;;;;;;;16.46;88.00;99718.44;5174578;27;20050;-62
2022/09/06 09:21:28;;;;;;;2.47;0.80;;;;;;;16.21;91.10;99712.81;5174464;27;20081;-62
2022/09/06 09:23:55;;;;;;;1.48;0.65;;;;;;;16.30;91.61;99711.66;5174349;27;20042;-62
2022/09/06 09:26:25;;;;;;;2.58;1.00;;;;;;;15.83;94.18;99707.88;5174650;27;20046;-62
2022/09/06 09:29:09;;;;;;;1.33;0.90;;;;;;;15.16;100.00;99690.47;5174055;27;20073;-61
2022/09/06 09:31:39;;;;;;;2.03;1.17;;;;;;;15.34;100.00;99693.34;5174365;27;20052;-61
2022/09/06 09:34:09;;;;;;;4.63;1.10;;;;;;;15.00;100.00;99678.91;5174246;27;20061;-62
2022/09/06 09:36:36;;;;;;;4.38;0.90;;;;;;;14.79;100.00;99677.56;5174177;27;20050;-62
2022/09/06 09:39:09;;;;;;;2.33;0.80;;;;;;;15.14;100.00;99675.47;5173861;27;20194;-62
2022/09/06 09:41:38;;;;;;;0.55;0.52;;;;;;;15.09;100.00;99670.28;5173994;27;20046;-61
2022/09/06 09:44:08;;;;;;;3.53;0.90;;;;;;;14.89;100.00;99662.22;5173918;27;20046;-61
2022/09/06 09:46:37;;;;;;;1.08;0.88;;;;;;;14.90;100.00;99665.81;5173879;27;20082;-62
2022/09/06 09:49:07;;;;;;;0.70;0.70;;;;;;;15.05;100.00;99651.72;5173817;27;20094;-62
2022/09/06 09:51:35;;;;;;;1.38;0.57;;;;;;;15.71;100.00;99667.56;5174019;27;20050;-62
2022/09/06 09:54:04;;;;;;;0.82;0.70;;;;;;;15.10;100.00;99661.63;5174062;27;20552;-62
2022/09/06 09:56:39;;;;;;;6.63;0.70;;;;;;;15.05;100.00;99661.97;5173579;27;20149;-62
2022/09/06 09:59:15;;;;;;;0.60;0.60;;;;;;;15.56;100.00;99680.50;5173727;27;20421;-62
2022/09/06 10:01:42;;;;;;;1.10;0.82;;;;;;;15.95;99.97;99697.28;5173699;27;20098;-62
2022/09/06 10:04:11;;;;;;;1.23;0.80;;;;;;;15.71;97.75;99695.97;5173615;27;20119;-62
2022/09/06 10:06:38;;;;;;;0.68;0.60;;;;;;;15.86;92.36;99707.94;5173615;27;20157;-61
2022/09/06 10:09:20;;;;;;;1.35;0.57;;;;;;;16.25;90.95;99704.53;5173840;27;20405;-62
2022/09/06 10:11:54;;;;;;;1.85;0.88;;;;;;;16.86;87.59;99702.72;5173353;27;20042;-62
2022/09/06 10:14:32;;;;;;;1.27;0.95;;;;;;;15.86;94.53;99690.53;5173660;27;20053;-62
2022/09/06 10:16:59;;;;;;;0.80;0.80;;;;;;;15.61;100.00;99680.09;5173393;27;20046;-62
2022/09/06 10:19:41;;;;;;;0.98;0.60;;;;;;;15.98;98.72;99682.69;5173365;27;20100;-61
2022/09/06 10:22:25;;;;;;;0.80;0.80;;;;;;;15.53;98.86;99671.00;5173247;27;20497;-61
2022/09/06 10:25:14;;;;;;;1.73;0.85;;;;;;;14.97;100.00;99674.16;5173126;27;20050;-62
2022/09/06 10:27:53;;;;;;;1.48;0.68;;;;;;;15.63;100.00;99660.38;5173280;27;20050;-62
2022/09/06 10:30:21;;;;;;;0.70;0.70;;;;;;;15.88;100.00;99669.59;5173119;27;20077;-62
2022/09/06 10:32:51;;;;;;;2.00;0.90;;;;;;;16.05;99.50;99675.59;5173016;27;20094;-62
2022/09/06 10:35:23;;;;;;;0.95;0.70;;;;;;;15.34;100.00;99676.00;5173055;27;20094;-62
2022/09/06 10:38:07;;;;;;;1.63;0.80;;;;;;;16.37;92.94;99681.25;5172857;27;20102;-62
2022/09/06 10:40:36;;;;;;;;;;;;;;;16.88;89.37;99686.50;5173831;27;20470;-62
2022/09/06 10:43:07;;;;;;;0.52;0.52;;;;;;;17.10;85.05;99697.59;5173452;27;20090;-62
2022/09/06 10:45:45;;;;;;;0.50;0.50;;;;;;;17.63;83.88;99705.84;5172799;27;20513;-62
2022/09/06 10:48:16;;;;;;;4.55;0.95;;;;;;;17.48;88.48;99689.63;5172807;27;20046;-62
2022/09/06 10:50:50;;;;;;;0.60;0.60;;;;;;;16.91;93.93;99682.94;5172521;27;20111;-62
2022/09/06 10:53:33;;;;;;;3.92;1.10;;;;;;;16.82;96.35;99668.69;5172598;27;20501;-61
2022/09/06 10:56:07;;;;;;;4.63;1.13;;;;;;;16.27;100.00;99668.97;5172866;27;20046;-62
2022/09/06 10:58:47;;;;;;;1.17;0.90;;;;;;;16.27;98.23;99666.19;5172492;27;20505;-61
2022/09/06 11:01:22;;;;;;;0.80;0.80;;;;;;;15.88;100.00;99664.06;5172824;27;20463;-62
2022/09/06 11:03:51;;;;;;;3.72;1.00;;;;;;;15.09;100.00;99653.72;5172436;27;20528;-62
2022/09/06 11:06:22;;;;;;;0.70;0.60;;;;;;;15.18;100.00;99662.47;5171483;27;20053;-61
2022/09/06 11:08:55;;;;;;;2.70;0.70;;;;;;;14.86;100.00;99645.63;5172210;27;20050;-62
2022/09/06 11:11:29;;;;;;;2.38;0.98;;;;;;;14.97;100.00;99644.56;5172494;27;20054;-61
2022/09/06 11:13:55;;;;;;;3.72;0.80;;;;;;;15.30;100.00;99659.41;5172359;27;20046;-62
2022/09/06 11:16:24;;;;;;;0.85;0.70;;;;;;;14.63;100.00;99652.16;5172405;27;20140;-59
2022/09/06 11:18:57;;;;;;;3.28;0.77;;;;;;;14.49;100.00;99646.47;5172479;27;20098;-59
2022/09/06 11:21:56;;;;;;;2.80;1.23;;;;;;;14.58;100.00;99633.97;5172285;27;20052;-56
2022/09/06 11:24:35;;;;;;;1.38;0.60;;;;;;;14.81;100.00;99638.53;5172468;27;20106;-56
2022/09/06 11:27:09;;;;;;;2.10;0.90;;;;;;;14.42;100.00;99649.94;5172243;27;20427;-57
2022/09/06 11:29:40;;;;;;;2.45;0.82;;;;;;;14.23;100.00;99642.69;5172334;27;20046;-58
2022/09/06 11:32:31;;;;;;;1.98;0.98;;;;;;;14.54;100.00;99648.91;5172039;27;20046;-57
2022/09/06 11:35:00;;;;;;;2.60;0.90;;;;;;;14.89;100.00;99651.19;5172054;27;20046;-57
2022/09/06 11:37:32;;;;;;;1.40;0.70;;;;;;;15.13;100.00;99660.03;5172458;27;20046;-57
2022/09/06 11:40:13;;;;;;;3.17;0.85;;;;;;;15.16;100.00;99659.28;5171999;27;20462;-54